Time;durP1;ratioP1;P1;durP2;ratioP2;P2;SDS_P1;SDS_P2;PMS_P1;PMS_P2;Temp;Humidity;BMP_temperature;BMP_pressure;BME280_temperature;BME280_humidity;BME280_pressure;Samples;Min_cycle;Max_cycle;Signal;HPM_P1;HPM_P2
2021/06/03 00:01:19;;;;;;;3.15;1.50;;;21.70;99.90;;;;;;20692072;28;20069;-49
2021/06/03 00:11:20;;;;;;;4.95;1.83;;;21.60;99.90;;;;;;20697728;28;20508;-50
2021/06/03 00:21:22;;;;;;;4.72;2.55;;;21.20;99.90;;;;;;20693381;28;20475;-49
2021/06/03 00:31:23;;;;;;;4.13;2.05;;;21.10;99.90;;;;;;20702824;28;20041;-49
2021/06/03 00:41:24;;;;;;;2.38;1.38;;;20.90;99.90;;;;;;20689023;28;20048;-50
2021/06/03 00:51:26;;;;;;;3.53;1.90;;;20.60;99.90;;;;;;20694348;28;20034;-49
2021/06/03 01:01:27;;;;;;;3.58;1.73;;;20.30;99.90;;;;;;20698841;28;20148;-49
2021/06/03 01:11:34;;;;;;;4.30;2.10;;;20.10;99.90;;;;;;20690682;28;20119;-49
2021/06/03 01:21:45;;;;;;;3.45;2.00;;;19.90;99.90;;;;;;20692309;28;20050;-49
2021/06/03 01:31:50;;;;;;;4.97;2.10;;;19.70;99.90;;;;;;20698195;28;20041;-49
2021/06/03 01:41:55;;;;;;;3.28;1.70;;;19.80;99.90;;;;;;20693433;28;20045;-49
2021/06/03 01:52:00;;;;;;;3.00;1.38;;;20.30;99.90;;;;;;20667281;28;20096;-49
2021/06/03 02:02:02;;;;;;;3.70;1.98;;;20.50;99.90;;;;;;20685753;28;20209;-49
2021/06/03 02:12:06;;;;;;;2.35;1.27;;;20.40;99.90;;;;;;20702374;28;20041;-49
2021/06/03 02:22:08;;;;;;;3.03;1.83;;;20.40;99.90;;;;;;20688539;28;20128;-49
2021/06/03 02:32:11;;;;;;;2.47;1.20;;;20.30;99.90;;;;;;20678712;28;20164;-49
2021/06/03 02:42:12;;;;;;;3.45;1.80;;;20.20;99.90;;;;;;20677317;28;20042;-49
2021/06/03 02:52:13;;;;;;;3.50;1.65;;;20.00;99.90;;;;;;20680554;28;20049;-49
2021/06/03 03:02:14;;;;;;;4.57;1.35;;;19.90;99.90;;;;;;20685252;28;20050;-49
2021/06/03 03:12:16;;;;;;;5.03;1.63;;;19.70;99.90;;;;;;20695175;28;20088;-49
2021/06/03 03:22:17;;;;;;;3.45;1.63;;;19.60;99.90;;;;;;20695263;28;20457;-49
2021/06/03 03:32:18;;;;;;;2.83;1.60;;;19.60;99.90;;;;;;20685870;28;20604;-49
2021/06/03 03:42:19;;;;;;;1.77;1.08;;;19.40;99.90;;;;;;20684526;28;20041;-49
2021/06/03 03:52:20;;;;;;;3.03;1.40;;;19.40;99.90;;;;;;20695740;28;20042;-49
2021/06/03 04:02:22;;;;;;;2.90;1.50;;;19.40;99.90;;;;;;20699451;28;20046;-49
2021/06/03 04:12:23;;;;;;;3.80;1.65;;;19.30;99.90;;;;;;20695863;28;20042;-49
2021/06/03 04:22:25;;;;;;;4.20;1.90;;;19.10;99.90;;;;;;20685074;28;20099;-49
2021/06/03 04:32:27;;;;;;;3.42;1.40;;;19.10;99.90;;;;;;20677143;28;20034;-49
2021/06/03 04:42:28;;;;;;;2.58;1.70;;;19.10;99.90;;;;;;20675953;28;20049;-49
2021/06/03 04:52:30;;;;;;;3.80;1.75;;;19.20;99.90;;;;;;20688930;28;20066;-49
2021/06/03 05:02:33;;;;;;;3.67;1.95;;;19.20;99.90;;;;;;20700591;28;20070;-49
2021/06/03 05:12:35;;;;;;;3.85;1.80;;;19.20;99.90;;;;;;20675809;28;20041;-49
2021/06/03 05:22:37;;;;;;;3.28;1.85;;;19.40;99.90;;;;;;20694864;28;20420;-49
2021/06/03 05:32:40;;;;;;;6.43;2.13;;;19.40;99.90;;;;;;20669352;28;20026;-49
2021/06/03 05:42:41;;;;;;;4.88;2.20;;;19.50;99.90;;;;;;20697700;28;20262;-49
2021/06/03 05:52:43;;;;;;;3.70;1.95;;;19.70;99.90;;;;;;20691938;28;20064;-49
2021/06/03 06:02:50;;;;;;;4.45;1.73;;;20.10;99.90;;;;;;20683525;28;20065;-50
2021/06/03 06:12:51;;;;;;;5.77;3.17;;;20.40;99.90;;;;;;20668111;28;20429;-49
2021/06/03 06:22:54;;;;;;;5.18;3.05;;;20.70;99.90;;;;;;20698190;28;20060;-49
2021/06/03 06:32:55;;;;;;;5.90;2.63;;;20.80;99.90;;;;;;20697085;28;20118;-49
2021/06/03 06:42:57;;;;;;;4.70;2.30;;;20.90;99.90;;;;;;20681438;28;20034;-49
2021/06/03 06:52:59;;;;;;;6.63;3.20;;;21.20;99.90;;;;;;20675570;28;20152;-49
2021/06/03 07:03:00;;;;;;;7.63;2.47;;;21.10;99.90;;;;;;20720282;28;20053;-50
2021/06/03 07:13:02;;;;;;;5.47;2.80;;;21.10;99.90;;;;;;20715940;28;20047;-49
2021/06/03 07:23:04;;;;;;;6.38;2.80;;;21.40;99.90;;;;;;20714616;28;20045;-49
2021/06/03 07:33:06;;;;;;;5.53;2.67;;;21.60;99.90;;;;;;20711157;28;20041;-49
2021/06/03 07:43:11;;;;;;;6.47;3.20;;;21.80;99.90;;;;;;20719300;28;20132;-50
2021/06/03 07:53:12;;;;;;;5.95;2.58;;;22.10;99.90;;;;;;20720754;28;20073;-49
2021/06/03 08:03:13;;;;;;;6.10;3.33;;;22.50;99.90;;;;;;20708855;28;20374;-49
2021/06/03 08:13:14;;;;;;;7.35;2.80;;;22.60;99.90;;;;;;20732546;28;20049;-49
2021/06/03 08:23:17;;;;;;;5.13;2.28;;;22.80;99.90;;;;;;20677141;28;20489;-49
2021/06/03 08:33:19;;;;;;;7.68;2.53;;;23.10;99.90;;;;;;20660076;28;20041;-49
2021/06/03 08:43:21;;;;;;;4.05;2.50;;;23.10;99.90;;;;;;20649239;28;20038;-49
2021/06/03 08:53:24;;;;;;;5.72;2.95;;;23.20;99.90;;;;;;20654570;28;20060;-49
2021/06/03 09:03:27;;;;;;;4.28;2.35;;;23.50;99.90;;;;;;20709271;28;20056;-49
2021/06/03 09:13:37;;;;;;;5.50;2.10;;;23.80;99.90;;;;;;20714646;28;20133;-49
2021/06/03 09:23:40;;;;;;;5.93;2.22;;;23.90;99.90;;;;;;20713975;28;20527;-49
2021/06/03 09:33:49;;;;;;;5.40;2.13;;;24.10;99.90;;;;;;20693617;28;20033;-49
2021/06/03 09:44:04;;;;;;;3.35;1.77;;;24.30;99.90;;;;;;20703219;28;20041;-49
2021/06/03 09:54:11;;;;;;;4.00;1.75;;;24.90;99.90;;;;;;20703082;28;20116;-49
2021/06/03 10:04:18;;;;;;;8.47;1.73;;;25.00;99.90;;;;;;20702674;28;20041;-49
2021/06/03 10:14:21;;;;;;;5.20;2.28;;;25.40;99.90;;;;;;20676239;28;20057;-50
2021/06/03 10:25:09;;;;;;;6.32;2.28;;;25.50;99.90;;;;;;20695238;28;20046;-50
2021/06/03 10:35:13;;;;;;;4.68;2.83;;;25.90;99.90;;;;;;20731828;28;20345;-50
2021/06/03 10:45:17;;;;;;;4.13;2.25;;;25.70;99.90;;;;;;20724897;28;20457;-50
2021/06/03 10:55:30;;;;;;;4.00;2.15;;;25.90;99.90;;;;;;20722244;28;20438;-50
2021/06/03 11:05:46;;;;;;;3.60;2.13;;;25.60;99.90;;;;;;20725267;28;20088;-50
2021/06/03 11:16:22;;;;;;;4.65;2.90;;;25.70;99.90;;;;;;20720790;28;20038;-50
2021/06/03 11:26:45;;;;;;;7.38;3.13;;;25.30;99.90;;;;;;20699441;28;20054;-50
2021/06/03 11:36:58;;;;;;;4.97;3.08;;;25.20;99.90;;;;;;20721990;28;20132;-50
2021/06/03 11:47:00;;;;;;;5.20;3.20;;;25.70;99.90;;;;;;20723013;28;20492;-50
2021/06/03 11:57:14;;;;;;;5.68;3.53;;;25.90;99.90;;;;;;20717172;28;20191;-50
2021/06/03 12:07:39;;;;;;;8.95;6.15;;;26.70;99.90;;;;;;20719350;28;20038;-50
2021/06/03 12:17:40;;;;;;;6.53;3.53;;;26.60;99.90;;;;;;20721006;28;20707;-49
2021/06/03 12:27:44;;;;;;;9.32;5.07;;;26.10;99.90;;;;;;20718343;28;20127;-50
2021/06/03 12:37:48;;;;;;;5.32;3.25;;;26.00;99.90;;;;;;20725085;28;20037;-50
2021/06/03 12:47:51;;;;;;;7.60;3.30;;;25.60;99.90;;;;;;20713892;28;20185;-50
2021/06/03 12:57:53;;;;;;;6.90;3.70;;;26.10;99.90;;;;;;20724648;28;20037;-50
2021/06/03 13:07:54;;;;;;;8.40;3.55;;;25.90;99.90;;;;;;20732069;28;20049;-50
2021/06/03 13:18:04;;;;;;;9.60;5.00;;;25.70;99.90;;;;;;20719950;28;20044;-50
2021/06/03 13:28:06;;;;;;;11.10;5.78;;;26.40;99.90;;;;;;20721159;28;20045;-50
2021/06/03 13:38:08;;;;;;;11.55;5.03;;;27.20;99.90;;;;;;20723514;28;20034;-50
2021/06/03 13:48:19;;;;;;;14.30;6.00;;;26.30;99.90;;;;;;20720658;28;20056;-50
2021/06/03 13:58:38;;;;;;;8.98;4.93;;;26.10;99.90;;;;;;20712946;28;20033;-50
2021/06/03 14:08:45;;;;;;;8.70;4.15;;;25.60;99.90;;;;;;20723533;28;20037;-50
2021/06/03 14:18:46;;;;;;;8.38;3.85;;;25.40;99.90;;;;;;20707448;28;20042;-50
2021/06/03 14:29:00;;;;;;;11.63;4.65;;;25.00;99.90;;;;;;20715650;28;20533;-50
2021/06/03 14:39:02;;;;;;;9.43;4.78;;;25.00;99.90;;;;;;20703358;28;20381;-50
2021/06/03 14:49:03;;;;;;;9.65;4.00;;;25.50;99.90;;;;;;20710486;28;20556;-50
2021/06/03 14:59:04;;;;;;;8.90;3.97;;;25.70;99.90;;;;;;20695449;28;20057;-50
2021/06/03 15:09:06;;;;;;;6.90;2.63;;;26.00;99.90;;;;;;20712156;28;20393;-50
2021/06/03 15:19:07;;;;;;;5.55;3.05;;;25.60;99.90;;;;;;20718871;28;20524;-49
2021/06/03 15:29:09;;;;;;;5.53;2.90;;;25.40;99.90;;;;;;20714279;28;20292;-50
2021/06/03 15:39:11;;;;;;;5.15;2.55;;;25.20;99.90;;;;;;20711945;28;20892;-50
2021/06/03 15:49:17;;;;;;;4.45;2.55;;;24.90;99.90;;;;;;20718898;28;20038;-49
2021/06/03 15:59:18;;;;;;;5.80;2.38;;;25.10;99.90;;;;;;20716790;28;20608;-50
2021/06/03 16:09:20;;;;;;;4.13;1.80;;;25.00;99.90;;;;;;20712503;28;20640;-50
2021/06/03 16:19:21;;;;;;;6.60;2.75;;;24.80;99.90;;;;;;20663475;28;20029;-49
2021/06/03 16:29:22;;;;;;;6.25;3.40;;;24.80;99.90;;;;;;20688370;28;20504;-50
2021/06/03 16:39:24;;;;;;;5.70;2.75;;;24.50;99.90;;;;;;20706856;28;20627;-50
2021/06/03 16:49:25;;;;;;;6.80;3.45;;;24.30;99.90;;;;;;20706256;28;20045;-50
2021/06/03 16:59:26;;;;;;;10.93;3.30;;;24.30;99.90;;;;;;20699655;28;20049;-50
2021/06/03 17:09:28;;;;;;;5.85;3.13;;;24.10;99.90;;;;;;20687333;28;20041;-50
2021/06/03 17:19:29;;;;;;;5.20;2.38;;;23.70;99.90;;;;;;20714605;28;20042;-50
2021/06/03 17:29:30;;;;;;;7.93;3.63;;;23.20;99.90;;;;;;20708034;28;20050;-50
2021/06/03 17:39:32;;;;;;;9.38;3.72;;;23.00;99.90;;;;;;20707165;28;20389;-50
2021/06/03 17:49:34;;;;;;;5.50;2.67;;;22.80;99.90;;;;;;20676637;28;20045;-50
2021/06/03 17:59:36;;;;;;;6.25;3.13;;;22.70;99.90;;;;;;20738649;28;20539;-50
2021/06/03 18:09:37;;;;;;;6.60;3.38;;;22.40;99.90;;;;;;20777526;28;20512;-50
2021/06/03 18:19:38;;;;;;;5.40;2.60;;;22.20;99.90;;;;;;20787747;28;20126;-50
2021/06/03 18:29:39;;;;;;;9.32;2.85;;;22.10;99.90;;;;;;20738791;28;20087;-50
2021/06/03 18:39:40;;;;;;;6.85;3.17;;;21.80;99.90;;;;;;20758255;28;20389;-50
2021/06/03 18:49:42;;;;;;;6.53;2.92;;;21.80;99.90;;;;;;20780258;28;20389;-50
2021/06/03 18:59:43;;;;;;;8.90;2.95;;;21.60;99.90;;;;;;20795814;28;20038;-50
2021/06/03 19:09:44;;;;;;;6.43;2.80;;;21.40;99.90;;;;;;20797053;28;20049;-50
2021/06/03 19:19:45;;;;;;;5.63;3.00;;;21.20;99.90;;;;;;20797742;28;20087;-50
2021/06/03 19:29:46;;;;;;;4.13;2.25;;;21.10;99.90;;;;;;20775363;28;20084;-50
2021/06/03 19:39:48;;;;;;;5.70;2.00;;;20.90;99.90;;;;;;20769976;28;20103;-50
2021/06/03 19:49:49;;;;;;;3.13;1.45;;;20.60;99.90;;;;;;20790655;28;20041;-50
2021/06/03 19:59:50;;;;;;;4.05;2.08;;;20.30;99.90;;;;;;20781656;28;20496;-50
2021/06/03 20:09:51;;;;;;;5.63;1.98;;;20.00;99.90;;;;;;20786673;28;20048;-50
2021/06/03 20:19:52;;;;;;;4.68;1.88;;;19.80;99.90;;;;;;20788844;28;20052;-50
2021/06/03 20:29:55;;;;;;;5.47;2.38;;;19.60;99.90;;;;;;20785899;28;20045;-50
2021/06/03 20:39:56;;;;;;;5.10;1.88;;;19.50;99.90;;;;;;20802058;28;20346;-50
2021/06/03 20:49:57;;;;;;;4.55;2.50;;;19.50;99.90;;;;;;20794417;28;20048;-50
2021/06/03 20:59:58;;;;;;;4.55;2.17;;;19.40;99.90;;;;;;20775040;28;20037;-50
2021/06/03 21:10:00;;;;;;;5.07;2.30;;;19.40;99.90;;;;;;20789300;28;20041;-50
2021/06/03 21:20:01;;;;;;;7.70;3.13;;;19.10;99.90;;;;;;20771322;28;20060;-50
2021/06/03 21:30:06;;;;;;;7.45;3.33;;;19.20;99.90;;;;;;20764714;28;20121;-50
2021/06/03 21:40:13;;;;;;;5.90;2.60;;;19.00;99.90;;;;;;20775324;28;20043;-50
2021/06/03 21:50:16;;;;;;;5.27;1.93;;;19.00;99.90;;;;;;20781636;28;20048;-50
2021/06/03 22:00:22;;;;;;;5.47;3.33;;;18.80;99.90;;;;;;20766857;28;20528;-50
2021/06/03 22:10:23;;;;;;;11.68;2.95;;;18.70;99.90;;;;;;20720558;28;20045;-50
2021/06/03 22:20:28;;;;;;;8.13;3.10;;;18.70;99.90;;;;;;20698976;28;20034;-50
2021/06/03 22:30:31;;;;;;;7.18;3.20;;;18.50;99.90;;;;;;20693544;28;20089;-50
2021/06/03 22:40:55;;;;;;;5.95;3.10;;;18.40;99.90;;;;;;20695275;28;20049;-50
2021/06/03 22:51:01;;;;;;;4.82;2.83;;;18.50;99.90;;;;;;20790550;28;20472;-50
2021/06/03 23:01:07;;;;;;;5.88;2.33;;;18.50;99.90;;;;;;20768979;28;20876;-50
2021/06/03 23:11:27;;;;;;;6.88;3.75;;;18.20;99.90;;;;;;20794911;28;20460;-50
2021/06/03 23:21:29;;;;;;;5.30;2.22;;;18.40;99.90;;;;;;20792963;28;20142;-50
2021/06/03 23:31:30;;;;;;;7.80;2.88;;;18.30;99.90;;;;;;20782632;28;20487;-50
2021/06/03 23:41:31;;;;;;;10.50;3.22;;;18.20;99.90;;;;;;20801978;28;20052;-50
2021/06/03 23:51:33;;;;;;;5.25;2.95;;;18.10;99.90;;;;;;20796271;28;20482;-49
